Kezdőlap
METAR-TAF:

METAR-TAF

Repülőterek :

Puvirnituq, Québec, Kanada

földrajzi szélesség: 60-03N, földrajzi hosszúság: 077-17W, magasság: 23 m

Jelenlegi meteorológiai megfigyelések

A jelentés 40 perccel ezelõtt készült, 16:00 UTC
Nyugat-délnyugati szél 13 kt széllökések: 18 kt
Hőmérséklet 16°C
Páratartalom 63%
Légköri nyomás 1025 hPa
Látótávolság: 14.5 km
Kevés felhő 25000 lábon

METAR: CYPX 131600Z AUTO 24013G18KT 9SM FEW250 16/09 A3026 RMK TS/LTNG TEMPO UNAVBL SLP251

Idő: 12:40 (16:40 UTC)

Előrejelzés

A jelentés 5 órával és 2 perccel ezelõtt készült, 11:38 UTC
Az előrejelzés 13-én 12 óra UTC és 13-én 24 óra UTC között érvényes
Nyugat-délnyugati szél 7 kt
Látótávolság: 10 km
Derült ég
13-én 12 óra UTC és 13-én 14 óra UTC között fokozatosan kialakuló
Nyugat-délnyugati szél 12 kt

TAF: CYPX 131138Z 1312/1324 25007KT P6SM SKC BECMG 1312/1314 25012KT RMK FCST BASED ON AUTO OBS. NXT FCST BY 131800Z

Meteorológiai megfigyelések és előrejelzések több, mint 4000 repülőtéren (METAR és TAF jelentéseket).

A térképen piros és sárga pontok jelzik az elérhető meteorológiai állomásokat.

Mozgassa az egeret a pont fölött, hogy megjelenjen az állomás neve.

Azután kattintson az időjárási megfigyelések és előrejelzések megtekintéséhez.

A térkép megváltoztatása: kattintson a fekete keresztel jelölt zöld gombra ráközelítéshez, a vonallal jelölt zöld gombra távolításhoz, vagy a zöld nyilakra a szomszédos térképek eléréséhez.


METAR-TAF: